createdAt,value
2016-09-29T00:00:05.831Z,1005.57
2016-09-29T00:01:05.852Z,1005.56
2016-09-29T00:02:05.873Z,1005.56
2016-09-29T00:03:05.890Z,1005.53
2016-09-29T00:04:05.911Z,1005.54
2016-09-29T00:05:05.934Z,1005.5
2016-09-29T00:06:05.956Z,1005.51
2016-09-29T00:07:05.981Z,1005.53
2016-09-29T00:08:05.999Z,1005.53
2016-09-29T00:09:06.026Z,1005.5
2016-09-29T00:10:06.039Z,1005.49
2016-09-29T00:11:06.068Z,1005.48
2016-09-29T00:12:06.083Z,1005.49
2016-09-29T00:13:06.117Z,1005.49
2016-09-29T00:14:06.126Z,1005.5
2016-09-29T00:15:06.154Z,1005.52
2016-09-29T00:16:06.176Z,1005.47
2016-09-29T00:17:06.210Z,1005.47
2016-09-29T00:18:06.218Z,1005.51
2016-09-29T00:19:06.234Z,1005.52
2016-09-29T00:20:06.259Z,1005.5
2016-09-29T00:21:06.280Z,1005.52
2016-09-29T00:22:06.304Z,1005.41
2016-09-29T00:23:06.323Z,1005.43
2016-09-29T00:24:06.347Z,1005.5
2016-09-29T00:25:06.363Z,1005.41
2016-09-29T00:26:06.383Z,1005.42
2016-09-29T00:27:06.409Z,1005.38
2016-09-29T00:28:06.432Z,1005.37
2016-09-29T00:29:06.445Z,1005.38
2016-09-29T00:30:06.476Z,1005.38
2016-09-29T00:31:06.498Z,1005.37
2016-09-29T00:32:06.517Z,1005.32
2016-09-29T00:33:06.538Z,1005.35
2016-09-29T00:34:06.559Z,1005.31
2016-09-29T00:35:06.581Z,1005.34
2016-09-29T00:36:06.601Z,1005.32
2016-09-29T00:37:06.615Z,1005.28
2016-09-29T00:38:06.640Z,1005.23
2016-09-29T00:39:06.664Z,1005.22
2016-09-29T00:40:06.686Z,1005.16
2016-09-29T00:41:06.708Z,1005.21
2016-09-29T00:42:06.724Z,1005.18
2016-09-29T00:43:06.748Z,1005.19
2016-09-29T00:44:06.771Z,1005.23
2016-09-29T00:45:06.799Z,1005.22
2016-09-29T00:46:06.814Z,1005.25
2016-09-29T00:47:06.831Z,1005.25
2016-09-29T00:48:06.855Z,1005.26
2016-09-29T00:49:06.880Z,1005.22
2016-09-29T00:50:06.895Z,1005.22
2016-09-29T00:51:06.919Z,1005.26
2016-09-29T00:52:06.943Z,1005.18
2016-09-29T00:53:06.964Z,1005.17
2016-09-29T00:54:06.985Z,1005.13
2016-09-29T00:55:07.001Z,1005.15
2016-09-29T00:56:07.024Z,1005.12
2016-09-29T00:57:07.053Z,1005.11
2016-09-29T00:58:07.068Z,1005.1
2016-09-29T00:59:07.093Z,1005.12
2016-09-29T01:00:07.114Z,1005.08
2016-09-29T01:01:07.131Z,1005.1
2016-09-29T01:02:07.156Z,1005.07
2016-09-29T01:03:07.178Z,1005.03
2016-09-29T01:04:07.200Z,1005.01
2016-09-29T01:05:07.219Z,1004.98
2016-09-29T01:06:07.362Z,1005.01
2016-09-29T01:07:07.258Z,1005
2016-09-29T01:08:07.279Z,1005.03
2016-09-29T01:09:07.310Z,1005
2016-09-29T01:10:07.326Z,1004.99
2016-09-29T01:11:07.354Z,1004.98
2016-09-29T01:12:07.374Z,1004.97
2016-09-29T01:13:07.393Z,1004.91
2016-09-29T01:14:07.413Z,1004.91
2016-09-29T01:15:07.442Z,1004.91
2016-09-29T01:16:07.455Z,1004.94
2016-09-29T01:17:07.475Z,1004.88
2016-09-29T01:18:07.494Z,1004.89
2016-09-29T01:19:07.518Z,1004.89
2016-09-29T01:20:07.535Z,1004.9
2016-09-29T01:21:07.565Z,1004.93
2016-09-29T01:22:07.584Z,1004.86
2016-09-29T01:23:07.608Z,1004.84
2016-09-29T01:24:07.624Z,1004.81
2016-09-29T01:25:07.646Z,1004.82
2016-09-29T01:26:07.667Z,1004.83
2016-09-29T01:27:07.687Z,1004.81
2016-09-29T01:28:07.704Z,1004.82
2016-09-29T01:29:07.732Z,1004.81
2016-09-29T01:30:07.750Z,1004.78
2016-09-29T01:31:07.770Z,1004.81
2016-09-29T01:32:07.791Z,1004.8
2016-09-29T01:33:07.814Z,1004.75
2016-09-29T01:34:07.838Z,1004.77
2016-09-29T01:35:07.856Z,1004.73
2016-09-29T01:36:07.877Z,1004.74
2016-09-29T01:37:07.899Z,1004.67
2016-09-29T01:38:07.923Z,1004.69
2016-09-29T01:39:07.949Z,1004.67
2016-09-29T01:40:07.968Z,1004.66
2016-09-29T01:41:07.992Z,1004.63
2016-09-29T01:42:08.006Z,1004.62
2016-09-29T01:43:08.032Z,1004.65
2016-09-29T01:44:08.050Z,1004.62
2016-09-29T01:45:08.074Z,1004.62
2016-09-29T01:46:08.098Z,1004.62
2016-09-29T01:47:08.117Z,1004.58
2016-09-29T01:48:08.135Z,1004.61
2016-09-29T01:49:08.167Z,1004.59
2016-09-29T01:50:08.174Z,1004.53
2016-09-29T01:51:08.196Z,1004.49
2016-09-29T01:52:08.224Z,1004.48
2016-09-29T01:53:08.240Z,1004.46
2016-09-29T01:54:08.267Z,1004.46
2016-09-29T01:55:08.285Z,1004.42
2016-09-29T01:56:08.309Z,1004.45
2016-09-29T01:57:08.325Z,1004.48
2016-09-29T01:58:08.349Z,1004.43
2016-09-29T01:59:08.375Z,1004.42
2016-09-29T02:00:08.392Z,1004.45
2016-09-29T02:01:08.412Z,1004.39
2016-09-29T02:02:08.433Z,1004.39
2016-09-29T02:03:08.460Z,1004.39
2016-09-29T02:04:08.477Z,1004.4
2016-09-29T02:05:08.499Z,1004.35
2016-09-29T02:06:08.524Z,1004.35
2016-09-29T02:07:08.541Z,1004.31
2016-09-29T02:08:08.565Z,1004.29
2016-09-29T02:09:08.586Z,1004.28
2016-09-29T02:10:08.604Z,1004.28
2016-09-29T02:11:08.625Z,1004.27
2016-09-29T02:12:08.650Z,1004.24
2016-09-29T02:13:08.674Z,1004.21
2016-09-29T02:14:08.696Z,1004.2
2016-09-29T02:15:08.714Z,1004.28
2016-09-29T02:16:08.739Z,1004.19
2016-09-29T02:17:08.754Z,1004.21
2016-09-29T02:18:08.778Z,1004.12
2016-09-29T02:19:08.802Z,1004.15
2016-09-29T02:20:08.822Z,1004.15
2016-09-29T02:21:08.848Z,1004.17
2016-09-29T02:22:08.863Z,1004.14
2016-09-29T02:23:08.896Z,1004.14
2016-09-29T02:24:08.910Z,1004.12
2016-09-29T02:25:08.934Z,1004.11
2016-09-29T02:26:08.950Z,1004.08
2016-09-29T02:27:08.971Z,1004.05
2016-09-29T02:28:08.994Z,1003.99
2016-09-29T02:29:09.017Z,1003.98
2016-09-29T02:30:09.032Z,1003.94
2016-09-29T02:31:09.056Z,1003.94
2016-09-29T02:32:09.076Z,1003.9
2016-09-29T02:33:09.109Z,1003.91
2016-09-29T02:34:09.116Z,1003.85
2016-09-29T02:35:09.151Z,1003.89
2016-09-29T02:36:09.163Z,1003.95
2016-09-29T02:37:09.198Z,1003.9
2016-09-29T02:38:09.210Z,1003.92
2016-09-29T02:39:09.235Z,1003.83
2016-09-29T02:40:09.249Z,1003.87
2016-09-29T02:41:09.283Z,1003.88
2016-09-29T02:42:09.296Z,1003.86
2016-09-29T02:43:09.321Z,1003.89
2016-09-29T02:44:09.332Z,1003.91
2016-09-29T02:45:09.358Z,1003.84
2016-09-29T02:46:09.374Z,1003.92
2016-09-29T02:47:09.409Z,1003.9
2016-09-29T02:48:09.418Z,1003.92
2016-09-29T02:49:09.451Z,1003.92
2016-09-29T02:50:09.465Z,1003.89
2016-09-29T02:51:09.484Z,1003.92
2016-09-29T02:52:09.508Z,1003.9
2016-09-29T02:53:09.527Z,1003.86
2016-09-29T02:54:09.552Z,1003.81
2016-09-29T02:55:09.577Z,1003.82
2016-09-29T02:56:09.588Z,1003.82
2016-09-29T02:57:09.616Z,1003.82
2016-09-29T02:58:09.638Z,1003.8
2016-09-29T02:59:09.654Z,1003.86
2016-09-29T03:00:09.680Z,1003.83
2016-09-29T03:01:09.705Z,1003.82
2016-09-29T03:02:09.722Z,1003.76
2016-09-29T03:03:09.737Z,1003.75
2016-09-29T03:04:09.762Z,1003.69
2016-09-29T03:05:09.796Z,1003.74
2016-09-29T03:06:09.810Z,1003.67
2016-09-29T03:07:09.828Z,1003.72
2016-09-29T03:08:09.846Z,1003.66
2016-09-29T03:09:09.868Z,1003.67
2016-09-29T03:10:09.887Z,1003.7
2016-09-29T03:11:09.911Z,1003.69
2016-09-29T03:12:09.935Z,1003.75
2016-09-29T03:13:09.956Z,1003.68
2016-09-29T03:14:09.980Z,1003.67
2016-09-29T03:15:10.003Z,1003.68
2016-09-29T03:16:10.022Z,1003.7
2016-09-29T03:17:10.039Z,1003.64
2016-09-29T03:18:10.062Z,1003.68
2016-09-29T03:19:10.082Z,1003.69
2016-09-29T03:20:10.107Z,1003.69
2016-09-29T03:21:10.135Z,1003.7
2016-09-29T03:22:10.145Z,1003.67
2016-09-29T03:23:10.168Z,1003.65
2016-09-29T03:24:10.188Z,1003.69
2016-09-29T03:25:10.207Z,1003.63
2016-09-29T03:26:10.231Z,1003.65
2016-09-29T03:27:10.252Z,1003.7
2016-09-29T03:28:10.276Z,1003.69
2016-09-29T03:29:10.295Z,1003.74
2016-09-29T03:30:10.317Z,1003.72
2016-09-29T03:31:10.346Z,1003.72
2016-09-29T03:32:10.363Z,1003.72
2016-09-29T03:33:10.382Z,1003.66
2016-09-29T03:34:10.405Z,1003.62
2016-09-29T03:35:10.424Z,1003.65
2016-09-29T03:36:10.451Z,1003.64
2016-09-29T03:37:10.474Z,1003.61
2016-09-29T03:38:10.492Z,1003.61
2016-09-29T03:39:10.515Z,1003.62
2016-09-29T03:40:10.531Z,1003.63
2016-09-29T03:41:10.552Z,1003.67
2016-09-29T03:42:10.571Z,1003.64
2016-09-29T03:43:10.591Z,1003.63
2016-09-29T03:44:10.617Z,1003.6
2016-09-29T03:45:10.639Z,1003.57
2016-09-29T03:46:10.659Z,1003.56
2016-09-29T03:47:10.695Z,1003.57
2016-09-29T03:48:10.705Z,1003.53
2016-09-29T03:49:10.727Z,1003.52
2016-09-29T03:50:10.743Z,1003.52
2016-09-29T03:51:10.769Z,1003.54
2016-09-29T03:52:10.788Z,1003.5
2016-09-29T03:53:10.813Z,1003.52
2016-09-29T03:54:10.831Z,1003.51
2016-09-29T03:55:10.851Z,1003.55
2016-09-29T03:56:10.875Z,1003.52
2016-09-29T03:57:10.897Z,1003.53
2016-09-29T03:58:10.913Z,1003.51
2016-09-29T03:59:10.949Z,1003.47
2016-09-29T04:01:10.983Z,1003.52
2016-09-29T04:02:11.009Z,1003.5
2016-09-29T04:03:11.033Z,1003.5
2016-09-29T04:04:11.047Z,1003.47
2016-09-29T04:05:11.069Z,1003.43
2016-09-29T04:06:11.086Z,1003.43
2016-09-29T04:07:11.111Z,1003.44
2016-09-29T04:08:11.138Z,1003.41
2016-09-29T04:09:11.152Z,1003.44
2016-09-29T04:10:11.169Z,1003.39
2016-09-29T04:11:11.195Z,1003.38
2016-09-29T04:12:11.211Z,1003.38
2016-09-29T04:13:11.237Z,1003.32
2016-09-29T04:14:11.259Z,1003.32
2016-09-29T04:15:11.275Z,1003.27
2016-09-29T04:16:11.298Z,1003.31
2016-09-29T04:17:11.321Z,1003.26
2016-09-29T04:18:11.341Z,1003.27
2016-09-29T04:19:11.373Z,1003.27
2016-09-29T04:20:11.387Z,1003.26
2016-09-29T04:21:11.409Z,1003.22
2016-09-29T04:22:11.430Z,1003.24
2016-09-29T04:23:11.450Z,1003.24
2016-09-29T04:24:11.470Z,1003.25
2016-09-29T04:25:11.491Z,1003.23
2016-09-29T04:26:11.509Z,1003.18
2016-09-29T04:27:11.531Z,1003.21
2016-09-29T04:28:11.554Z,1003.16
2016-09-29T04:29:11.579Z,1003.19
2016-09-29T04:30:11.592Z,1003.17
2016-09-29T04:31:11.616Z,1003.17
2016-09-29T04:32:11.637Z,1003.13
2016-09-29T04:33:11.662Z,1003.09
2016-09-29T04:34:11.678Z,1003.08
2016-09-29T04:35:11.702Z,1003.07
2016-09-29T04:36:11.720Z,1003.05
2016-09-29T04:37:11.750Z,1003.04
2016-09-29T04:38:11.761Z,1003.03
2016-09-29T04:39:11.783Z,1002.96
2016-09-29T04:40:11.807Z,1002.96
2016-09-29T04:41:11.825Z,1002.94
2016-09-29T04:42:11.849Z,1002.89
2016-09-29T04:43:11.871Z,1002.9
2016-09-29T04:44:11.890Z,1002.93
2016-09-29T04:45:11.913Z,1002.97
2016-09-29T04:46:11.932Z,1002.93
2016-09-29T04:47:11.952Z,1002.97
2016-09-29T04:48:11.974Z,1002.94
2016-09-29T04:49:11.995Z,1002.9
2016-09-29T04:50:12.015Z,1002.88
2016-09-29T04:51:12.041Z,1002.89
2016-09-29T04:52:12.057Z,1002.88
2016-09-29T04:53:12.079Z,1002.88
2016-09-29T04:54:12.099Z,1002.85
2016-09-29T04:55:12.123Z,1002.86
2016-09-29T04:56:12.136Z,1002.83
2016-09-29T04:57:12.156Z,1002.82
2016-09-29T04:58:12.191Z,1002.78
2016-09-29T04:59:12.203Z,1002.75
2016-09-29T05:00:12.225Z,1002.79
2016-09-29T05:01:12.245Z,1002.73
2016-09-29T05:02:12.269Z,1002.73
2016-09-29T05:03:12.283Z,1002.72
2016-09-29T05:04:12.311Z,1002.72
2016-09-29T05:05:12.331Z,1002.65
2016-09-29T05:06:12.352Z,1002.72
2016-09-29T05:07:12.373Z,1002.59
2016-09-29T05:08:12.390Z,1002.62
2016-09-29T05:09:12.423Z,1002.58
2016-09-29T05:10:12.434Z,1002.61
2016-09-29T05:11:12.457Z,1002.61
2016-09-29T05:12:12.472Z,1002.63
2016-09-29T05:13:12.499Z,1002.62
2016-09-29T05:14:12.515Z,1002.64
2016-09-29T05:15:12.545Z,1002.63
2016-09-29T05:16:12.558Z,1002.56
2016-09-29T05:17:12.589Z,1002.53
2016-09-29T05:18:12.601Z,1002.56
2016-09-29T05:19:12.623Z,1002.52
2016-09-29T05:20:12.645Z,1002.47
2016-09-29T05:21:12.666Z,1002.49
2016-09-29T05:22:12.688Z,1002.5
2016-09-29T05:23:12.702Z,1002.48
2016-09-29T05:24:12.727Z,1002.53
2016-09-29T05:25:12.749Z,1002.53
2016-09-29T05:26:12.769Z,1002.52
2016-09-29T05:27:12.784Z,1002.57
2016-09-29T05:28:12.811Z,1002.54
2016-09-29T05:29:12.836Z,1002.45
2016-09-29T05:30:12.851Z,1002.52
2016-09-29T05:31:12.872Z,1002.5
2016-09-29T05:32:12.890Z,1002.46
2016-09-29T05:33:12.924Z,1002.46
2016-09-29T05:34:12.952Z,1002.46
2016-09-29T05:35:12.958Z,1002.46
2016-09-29T05:36:12.977Z,1002.49
2016-09-29T05:37:12.998Z,1002.45
2016-09-29T05:38:13.015Z,1002.43
2016-09-29T05:39:13.044Z,1002.47
2016-09-29T05:40:13.058Z,1002.47
2016-09-29T05:41:13.081Z,1002.48
2016-09-29T05:42:13.101Z,1002.47
2016-09-29T05:43:13.130Z,1002.48
2016-09-29T05:44:13.144Z,1002.42
2016-09-29T05:45:13.159Z,1002.49
2016-09-29T05:46:13.186Z,1002.43
2016-09-29T05:47:13.203Z,1002.41
2016-09-29T05:48:13.228Z,1002.37
2016-09-29T05:49:13.249Z,1002.45
2016-09-29T05:50:13.264Z,1002.43
2016-09-29T05:51:13.289Z,1002.39
2016-09-29T05:52:13.315Z,1002.39
2016-09-29T05:53:13.326Z,1002.38
2016-09-29T05:54:13.349Z,1002.43
2016-09-29T05:55:13.375Z,1002.39
2016-09-29T05:56:13.393Z,1002.38
2016-09-29T05:57:13.412Z,1002.35
2016-09-29T05:58:13.430Z,1002.41
2016-09-29T05:59:13.452Z,1002.38
2016-09-29T06:00:13.477Z,1002.36
2016-09-29T06:01:13.499Z,1002.34
2016-09-29T06:02:13.517Z,1002.38
2016-09-29T06:03:13.534Z,1002.35
2016-09-29T06:04:13.555Z,1002.44
2016-09-29T06:05:13.580Z,1002.37
2016-09-29T06:06:13.597Z,1002.35
2016-09-29T06:07:13.615Z,1002.34
2016-09-29T06:08:13.641Z,1002.32
2016-09-29T06:09:13.662Z,1002.34
2016-09-29T06:10:13.677Z,1002.32
2016-09-29T06:11:13.703Z,1002.33
2016-09-29T06:12:13.718Z,1002.32
2016-09-29T06:13:13.743Z,1002.28
2016-09-29T06:14:13.766Z,1002.33
2016-09-29T06:15:13.789Z,1002.29
2016-09-29T06:16:13.804Z,1002.23
2016-09-29T06:17:13.827Z,1002.24
2016-09-29T06:18:13.849Z,1002.24
2016-09-29T06:19:13.870Z,1002.21
2016-09-29T06:20:13.893Z,1002.15
2016-09-29T06:21:13.910Z,1002.15
2016-09-29T06:22:13.930Z,1002.12
2016-09-29T06:23:13.954Z,1002.1
2016-09-29T06:24:13.974Z,1002.14
2016-09-29T06:25:13.997Z,1002.11
2016-09-29T06:26:14.015Z,1002.11
2016-09-29T06:27:14.033Z,1002.1
2016-09-29T06:28:14.058Z,1002.14
2016-09-29T06:29:14.079Z,1002.11
2016-09-29T06:30:14.099Z,1002.11
2016-09-29T06:31:14.121Z,1002.14
2016-09-29T06:32:14.143Z,1002.12
2016-09-29T06:33:14.162Z,1002.09
2016-09-29T06:34:14.182Z,1002.05
2016-09-29T06:35:14.206Z,1002.09
2016-09-29T06:36:14.226Z,1002.06
2016-09-29T06:37:14.256Z,1002.06
2016-09-29T06:38:14.266Z,1002.07
2016-09-29T06:39:14.290Z,1002.1
2016-09-29T06:40:14.311Z,1002.07
2016-09-29T06:41:14.329Z,1002.08
2016-09-29T06:42:14.353Z,1002.1
2016-09-29T06:43:14.374Z,1002.11
2016-09-29T06:44:14.390Z,1002.11
2016-09-29T06:45:14.415Z,1002.08
2016-09-29T06:46:14.437Z,1002.07
2016-09-29T06:47:14.457Z,1002.07
2016-09-29T06:48:14.485Z,1002.1
2016-09-29T06:49:14.505Z,1002.07
2016-09-29T06:50:14.531Z,1002.05
2016-09-29T06:51:14.541Z,1002.02
2016-09-29T06:52:14.567Z,1002.05
2016-09-29T06:53:14.586Z,1002.03
2016-09-29T06:54:14.607Z,1002.04
2016-09-29T06:55:14.638Z,1002.03
2016-09-29T06:56:14.650Z,1002.03
2016-09-29T06:57:14.674Z,1002.01
2016-09-29T06:58:14.692Z,1002.02
2016-09-29T06:59:14.717Z,1002.02
2016-09-29T07:00:14.737Z,1002.01
2016-09-29T07:01:14.762Z,1001.98
2016-09-29T07:02:14.777Z,1001.99
2016-09-29T07:03:14.796Z,1001.99
2016-09-29T07:04:14.824Z,1002
2016-09-29T07:05:14.845Z,1001.99
2016-09-29T07:06:14.863Z,1001.97
2016-09-29T07:07:14.887Z,1001.97
2016-09-29T07:08:14.906Z,1001.95
2016-09-29T07:09:14.929Z,1002.01
2016-09-29T07:10:14.952Z,1001.97
2016-09-29T07:11:14.971Z,1001.91
2016-09-29T07:12:14.994Z,1001.93
2016-09-29T07:13:15.018Z,1001.95
2016-09-29T07:14:15.037Z,1001.9
2016-09-29T07:15:15.061Z,1001.95
2016-09-29T07:16:15.085Z,1001.97
2016-09-29T07:17:15.103Z,1001.95
2016-09-29T07:18:15.128Z,1001.91
2016-09-29T07:19:15.170Z,1001.95
2016-09-29T07:20:15.173Z,1001.9
2016-09-29T07:21:15.197Z,1001.9
2016-09-29T07:22:15.223Z,1001.92
2016-09-29T07:23:15.239Z,1001.88
2016-09-29T07:24:15.261Z,1001.9
2016-09-29T07:25:15.277Z,1001.97
2016-09-29T07:26:15.303Z,1001.96
2016-09-29T07:27:15.319Z,1001.94
2016-09-29T07:28:15.350Z,1001.95
2016-09-29T07:29:15.368Z,1001.94
2016-09-29T07:30:15.405Z,1001.86
2016-09-29T07:31:15.416Z,1001.87
2016-09-29T07:32:15.437Z,1001.92
2016-09-29T07:33:15.453Z,1001.9
2016-09-29T07:34:15.476Z,1001.89
2016-09-29T07:35:15.496Z,1001.95
2016-09-29T07:36:15.523Z,1001.89
2016-09-29T07:37:15.549Z,1001.9
2016-09-29T07:38:15.570Z,1001.89
2016-09-29T07:39:15.590Z,1001.93
2016-09-29T07:40:15.611Z,1001.93
2016-09-29T07:41:15.628Z,1001.94
2016-09-29T07:42:15.651Z,1001.96
2016-09-29T07:43:15.679Z,1001.93
2016-09-29T07:44:15.695Z,1001.93
2016-09-29T07:45:15.725Z,1001.95
2016-09-29T07:46:15.736Z,1001.95
2016-09-29T07:47:15.765Z,1001.99
2016-09-29T07:48:15.786Z,1001.97
2016-09-29T07:49:15.809Z,1002.01
2016-09-29T07:50:15.836Z,1001.97
2016-09-29T07:51:15.852Z,1001.95
2016-09-29T07:52:15.871Z,1001.95
2016-09-29T07:53:15.895Z,1001.87
2016-09-29T07:54:15.914Z,1001.86
2016-09-29T07:55:15.940Z,1001.89
2016-09-29T07:56:15.962Z,1001.92
2016-09-29T07:57:15.981Z,1001.96
2016-09-29T07:58:16.002Z,1001.89
2016-09-29T07:59:16.024Z,1001.91
2016-09-29T08:00:16.049Z,1001.87
2016-09-29T08:01:16.076Z,1001.89
2016-09-29T08:02:16.094Z,1001.89
2016-09-29T08:03:16.113Z,1001.83
2016-09-29T08:04:16.137Z,1001.82
2016-09-29T08:05:16.166Z,1001.79
2016-09-29T08:06:16.183Z,1001.8
2016-09-29T08:07:16.207Z,1001.8
2016-09-29T08:08:16.223Z,1001.79
2016-09-29T08:09:16.257Z,1001.77
2016-09-29T08:10:16.271Z,1001.76
2016-09-29T08:11:16.294Z,1001.78
2016-09-29T08:12:16.312Z,1001.75
2016-09-29T08:13:16.345Z,1001.73
2016-09-29T08:14:16.362Z,1001.72
2016-09-29T08:15:16.384Z,1001.69
2016-09-29T08:16:16.403Z,1001.68
2016-09-29T08:17:16.421Z,1001.67
2016-09-29T08:18:16.450Z,1001.72
2016-09-29T08:19:16.476Z,1001.69
2016-09-29T08:20:16.490Z,1001.66
2016-09-29T08:21:16.515Z,1001.61
2016-09-29T08:22:16.535Z,1001.65
2016-09-29T08:23:16.556Z,1001.64
2016-09-29T08:24:16.583Z,1001.62
2016-09-29T08:25:16.609Z,1001.61
2016-09-29T08:26:16.627Z,1001.63
2016-09-29T08:27:16.650Z,1001.65
2016-09-29T08:28:16.670Z,1001.69
2016-09-29T08:29:16.698Z,1001.65
2016-09-29T08:30:16.712Z,1001.61
2016-09-29T08:31:16.746Z,1001.65
2016-09-29T08:32:16.758Z,1001.68
2016-09-29T08:33:16.781Z,1001.69
2016-09-29T08:34:16.804Z,1001.69
2016-09-29T08:35:16.828Z,1001.65
2016-09-29T08:36:16.844Z,1001.68
2016-09-29T08:37:16.869Z,1001.61
2016-09-29T08:38:16.895Z,1001.64
2016-09-29T08:39:16.915Z,1001.66
2016-09-29T08:40:16.946Z,1001.67
2016-09-29T08:41:16.960Z,1001.73
2016-09-29T08:42:16.981Z,1001.69
2016-09-29T08:43:17.007Z,1001.67
2016-09-29T08:44:17.031Z,1001.64
2016-09-29T08:45:17.052Z,1001.58
2016-09-29T08:46:17.072Z,1001.61
2016-09-29T08:47:17.094Z,1001.54
2016-09-29T08:48:17.120Z,1001.57
2016-09-29T08:49:17.141Z,1001.59
2016-09-29T08:50:17.165Z,1001.57
2016-09-29T08:51:17.190Z,1001.54
2016-09-29T08:52:17.212Z,1001.58
2016-09-29T08:53:17.234Z,1001.54
2016-09-29T08:54:17.260Z,1001.49
2016-09-29T08:55:17.278Z,1001.52
2016-09-29T08:56:17.303Z,1001.52
2016-09-29T08:57:17.329Z,1001.54
2016-09-29T08:58:17.345Z,1001.5
2016-09-29T08:59:17.369Z,1001.45
2016-09-29T09:00:17.386Z,1001.41
2016-09-29T09:01:17.413Z,1001.4
2016-09-29T09:02:17.437Z,1001.4
2016-09-29T09:03:17.453Z,1001.36
2016-09-29T09:04:17.483Z,1001.36
2016-09-29T09:05:17.504Z,1001.29
2016-09-29T09:06:17.524Z,1001.38
2016-09-29T09:07:17.549Z,1001.29
2016-09-29T09:08:17.573Z,1001.23
2016-09-29T09:09:17.594Z,1001.23
2016-09-29T09:10:17.618Z,1001.18
2016-09-29T09:11:17.640Z,1001.16
2016-09-29T09:12:17.664Z,1001.13
2016-09-29T09:13:17.685Z,1001.13
2016-09-29T09:14:17.707Z,1001.12
2016-09-29T09:15:17.726Z,1001.09
2016-09-29T09:16:17.752Z,1001.07
2016-09-29T09:17:17.774Z,1001.07
2016-09-29T09:18:17.803Z,1001.01
2016-09-29T09:19:17.820Z,1000.99
2016-09-29T09:20:17.842Z,1001.05
2016-09-29T09:21:17.865Z,1000.94
2016-09-29T09:22:17.888Z,1000.88
2016-09-29T09:23:17.909Z,1000.87
2016-09-29T09:24:17.933Z,1000.88
2016-09-29T09:25:17.959Z,1000.82
2016-09-29T09:26:17.982Z,1000.85
2016-09-29T09:27:18.002Z,1000.77
2016-09-29T09:28:18.027Z,1000.75
2016-09-29T09:29:18.051Z,1000.74
2016-09-29T09:30:18.072Z,1000.73
2016-09-29T09:31:18.094Z,1000.7
2016-09-29T09:32:18.117Z,1000.72
2016-09-29T09:33:18.143Z,1000.71
2016-09-29T09:34:18.160Z,1000.71
2016-09-29T09:35:18.186Z,1000.68
2016-09-29T09:36:18.206Z,1000.65
2016-09-29T09:37:18.231Z,1000.63
2016-09-29T09:38:18.255Z,1000.58
2016-09-29T09:39:18.280Z,1000.56
2016-09-29T09:40:18.303Z,1000.54
2016-09-29T09:41:18.326Z,1000.5
2016-09-29T09:42:18.346Z,1000.46
2016-09-29T09:43:18.371Z,1000.45
2016-09-29T09:44:18.389Z,1000.44
2016-09-29T09:45:18.420Z,1000.4
2016-09-29T09:46:18.439Z,1000.35
2016-09-29T09:47:18.475Z,1000.3
2016-09-29T09:48:18.482Z,1000.25
2016-09-29T09:49:18.511Z,1000.27
2016-09-29T09:50:18.536Z,1000.17
2016-09-29T09:51:18.553Z,1000.18
2016-09-29T09:52:18.582Z,1000.22
2016-09-29T09:53:18.608Z,1000.16
2016-09-29T09:54:18.627Z,1000.16
2016-09-29T09:55:18.647Z,1000.2
2016-09-29T09:56:18.674Z,1000.19
2016-09-29T09:57:18.698Z,1000.17
2016-09-29T09:58:18.715Z,1000.14
2016-09-29T09:59:18.740Z,1000.14
2016-09-29T10:00:18.761Z,1000.1
2016-09-29T10:01:18.784Z,1000.1
2016-09-29T10:02:18.810Z,1000.07
2016-09-29T10:03:18.832Z,1000.04
2016-09-29T10:04:18.857Z,1000.01
2016-09-29T10:05:18.877Z,1000.03
2016-09-29T10:06:18.902Z,1000
2016-09-29T10:07:18.928Z,1000.02
2016-09-29T10:08:18.950Z,1000.02
2016-09-29T10:09:18.969Z,999.97
2016-09-29T10:10:18.996Z,1000.04
2016-09-29T10:11:19.012Z,999.94
2016-09-29T10:12:19.041Z,999.93
2016-09-29T10:13:19.066Z,999.98
2016-09-29T10:14:19.088Z,999.94
2016-09-29T10:15:19.110Z,999.96
2016-09-29T10:16:19.134Z,999.95
2016-09-29T10:17:19.160Z,999.92
2016-09-29T10:18:19.181Z,999.89
2016-09-29T10:19:19.207Z,999.83
2016-09-29T10:20:19.234Z,999.81
2016-09-29T10:21:19.250Z,999.81
2016-09-29T10:22:19.276Z,999.92
2016-09-29T10:23:19.304Z,999.86
2016-09-29T10:24:19.320Z,999.86
2016-09-29T10:25:19.349Z,999.82
2016-09-29T10:26:19.374Z,999.82
2016-09-29T10:27:19.392Z,999.78
2016-09-29T10:28:19.414Z,999.83
2016-09-29T10:29:19.441Z,999.8
2016-09-29T10:30:19.465Z,999.74
2016-09-29T10:31:19.493Z,999.76
2016-09-29T10:32:19.514Z,999.79
2016-09-29T10:33:19.538Z,999.8
2016-09-29T10:34:19.558Z,999.85
2016-09-29T10:35:19.584Z,999.76
2016-09-29T10:36:19.604Z,999.76
2016-09-29T10:37:19.633Z,999.74
2016-09-29T10:38:19.650Z,999.7
2016-09-29T10:39:19.674Z,999.62
2016-09-29T10:40:19.700Z,999.57
2016-09-29T10:41:19.725Z,999.57
2016-09-29T10:42:19.748Z,999.53
2016-09-29T10:43:19.777Z,999.5
2016-09-29T10:44:19.794Z,999.44
2016-09-29T10:45:19.823Z,999.55
2016-09-29T10:46:19.843Z,999.4
2016-09-29T10:47:19.876Z,999.38
2016-09-29T10:48:19.889Z,999.29
2016-09-29T10:49:19.914Z,999.36
2016-09-29T10:50:19.941Z,999.33
2016-09-29T10:51:19.967Z,999.28
2016-09-29T10:52:19.988Z,999.34
2016-09-29T10:53:20.009Z,999.33
2016-09-29T10:54:20.032Z,999.3
2016-09-29T10:55:20.063Z,999.29
2016-09-29T10:56:20.083Z,999.23
2016-09-29T10:57:20.108Z,999.21
2016-09-29T10:58:20.127Z,999.18
2016-09-29T10:59:20.161Z,999.18
2016-09-29T11:00:20.176Z,999.15
2016-09-29T11:01:20.201Z,999.16
2016-09-29T11:02:20.225Z,999.12
2016-09-29T11:03:20.247Z,999.18
2016-09-29T11:04:20.266Z,999.15
2016-09-29T11:05:20.291Z,999.07
2016-09-29T11:06:20.321Z,999.07
2016-09-29T11:07:20.341Z,999.07
2016-09-29T11:08:20.362Z,999.01
2016-09-29T11:09:20.392Z,999.03
2016-09-29T11:10:20.415Z,998.99
2016-09-29T11:11:20.438Z,998.96
2016-09-29T11:12:20.456Z,999.01
2016-09-29T11:13:20.496Z,998.95
2016-09-29T11:14:20.516Z,999
2016-09-29T11:15:20.531Z,998.96
2016-09-29T11:16:20.552Z,998.92
2016-09-29T11:17:20.579Z,998.88
2016-09-29T11:18:20.608Z,998.89
2016-09-29T11:19:20.631Z,998.89
2016-09-29T11:20:20.652Z,998.84
2016-09-29T11:21:20.676Z,998.8
2016-09-29T11:22:20.701Z,998.82
2016-09-29T11:23:20.724Z,998.79
2016-09-29T11:24:20.747Z,998.84
2016-09-29T11:25:20.782Z,998.84
2016-09-29T11:26:20.795Z,998.81
2016-09-29T11:27:20.824Z,998.8
2016-09-29T11:28:20.845Z,998.8
2016-09-29T11:29:20.872Z,998.77
2016-09-29T11:30:20.890Z,998.76
2016-09-29T11:31:20.917Z,998.77
2016-09-29T11:32:20.944Z,998.77
2016-09-29T11:33:20.968Z,998.71
2016-09-29T11:34:20.993Z,998.78
2016-09-29T11:35:21.028Z,998.71
2016-09-29T11:36:21.032Z,998.62
2016-09-29T11:37:21.072Z,998.59
2016-09-29T11:38:21.085Z,998.57
2016-09-29T11:39:21.118Z,998.56
2016-09-29T11:40:21.138Z,998.56
2016-09-29T11:41:21.171Z,998.5
2016-09-29T11:42:21.185Z,998.47
2016-09-29T11:43:21.204Z,998.45
2016-09-29T11:44:21.232Z,998.45
2016-09-29T11:45:21.259Z,998.44
2016-09-29T11:46:21.276Z,998.45
2016-09-29T11:47:21.303Z,998.32
2016-09-29T11:48:21.331Z,998.27
2016-09-29T11:49:21.355Z,998.29
2016-09-29T11:50:21.375Z,998.28
2016-09-29T11:51:21.401Z,998.26
2016-09-29T11:52:21.431Z,998.24
2016-09-29T11:53:21.452Z,998.16
2016-09-29T11:54:21.478Z,998.12
2016-09-29T11:55:21.539Z,998.23
2016-09-29T11:56:21.523Z,998.28
2016-09-29T11:57:21.549Z,998.13
2016-09-29T11:58:21.570Z,998.2
2016-09-29T11:59:21.595Z,998.19
2016-09-29T12:00:21.619Z,998.19
2016-09-29T12:01:21.649Z,998.2
2016-09-29T12:02:21.673Z,998.17
2016-09-29T12:03:21.698Z,998.16
2016-09-29T12:04:21.723Z,998.2
2016-09-29T12:05:21.748Z,998.2
2016-09-29T12:06:21.772Z,998.13
2016-09-29T12:07:21.793Z,998.03
2016-09-29T12:08:21.823Z,998.07
2016-09-29T12:09:21.846Z,997.94
2016-09-29T12:10:21.866Z,997.99
2016-09-29T12:11:21.894Z,998.02
2016-09-29T12:12:21.921Z,997.99